createdAt,value
2018-12-29T00:02:12.614Z,67.93
2018-12-29T00:04:41.727Z,73.93
2018-12-29T00:07:10.573Z,74.87
2018-12-29T00:09:39.429Z,73.03
2018-12-29T00:12:08.434Z,71.40
2018-12-29T00:14:37.638Z,77.87
2018-12-29T00:17:07.074Z,73.43
2018-12-29T00:19:35.939Z,73.87
2018-12-29T00:22:05.683Z,78.10
2018-12-29T00:24:34.881Z,76.23
2018-12-29T00:27:04.437Z,71.23
2018-12-29T00:29:34.125Z,68.13
2018-12-29T00:32:03.293Z,70.33
2018-12-29T00:34:32.140Z,72.60
2018-12-29T00:37:01.001Z,70.33
2018-12-29T00:39:30.148Z,70.00
2018-12-29T00:41:59.773Z,74.17
2018-12-29T00:44:28.689Z,74.40
2018-12-29T00:46:57.870Z,72.80
2018-12-29T00:49:27.321Z,71.10
2018-12-29T00:51:56.781Z,76.00
2018-12-29T00:54:26.526Z,74.50
2018-12-29T00:56:55.940Z,70.10
2018-12-29T00:59:25.386Z,74.47
2018-12-29T01:01:54.241Z,70.77
2018-12-29T01:04:23.374Z,72.40
2018-12-29T01:06:52.990Z,77.93
2018-12-29T01:09:22.503Z,75.77
2018-12-29T01:11:51.420Z,82.43
2018-12-29T01:14:20.950Z,73.93
2018-12-29T01:16:49.823Z,77.00
2018-12-29T01:19:18.670Z,79.20
2018-12-29T01:21:48.031Z,70.93
2018-12-29T01:24:17.137Z,77.00
2018-12-29T01:26:46.121Z,79.00
2018-12-29T01:29:15.430Z,73.30
2018-12-29T01:31:44.358Z,77.10
2018-12-29T01:34:13.571Z,72.80
2018-12-29T01:36:43.393Z,70.87
2018-12-29T01:39:12.678Z,76.70
2018-12-29T01:41:41.889Z,77.23
2018-12-29T01:44:11.085Z,75.57
2018-12-29T01:46:40.735Z,71.67
2018-12-29T01:49:09.880Z,77.20
2018-12-29T01:51:38.990Z,75.63
2018-12-29T01:54:08.314Z,68.63
2018-12-29T01:56:37.161Z,68.63
2018-12-29T01:59:06.484Z,77.77
2018-12-29T02:01:35.414Z,68.57
2018-12-29T02:04:04.289Z,72.47
2018-12-29T02:06:33.481Z,70.13
2018-12-29T02:09:02.992Z,69.03
2018-12-29T02:11:32.171Z,70.90
2018-12-29T02:14:01.361Z,77.37
2018-12-29T02:16:30.550Z,82.87
2018-12-29T02:18:59.757Z,75.43
2018-12-29T02:21:29.378Z,73.33
2018-12-29T02:23:58.577Z,72.93
2018-12-29T02:26:27.501Z,68.83
2018-12-29T02:28:57.075Z,67.93
2018-12-29T02:31:26.789Z,67.07
2018-12-29T02:33:55.734Z,72.10
2018-12-29T02:36:25.005Z,73.03
2018-12-29T02:38:54.488Z,74.30
2018-12-29T02:41:24.000Z,75.97
2018-12-29T02:43:53.198Z,70.37
2018-12-29T02:46:22.694Z,73.17
2018-12-29T02:48:52.077Z,67.67
2018-12-29T02:51:21.501Z,69.97
2018-12-29T02:53:50.406Z,68.57
2018-12-29T02:56:19.663Z,67.63
2018-12-29T02:58:48.511Z,71.67
2018-12-29T03:01:17.375Z,69.77
2018-12-29T03:03:46.305Z,70.27
2018-12-29T03:06:15.590Z,76.43
2018-12-29T03:08:44.816Z,69.43
2018-12-29T03:11:13.749Z,71.53
2018-12-29T03:13:43.013Z,69.10
2018-12-29T03:16:12.468Z,80.10
2018-12-29T03:18:41.571Z,69.93
2018-12-29T03:21:10.853Z,72.80
2018-12-29T03:23:40.367Z,77.80
2018-12-29T03:26:09.537Z,68.40
2018-12-29T03:28:38.629Z,65.73
2018-12-29T03:31:07.484Z,67.37
2018-12-29T03:33:36.654Z,71.27
2018-12-29T03:36:05.864Z,79.40
2018-12-29T03:38:34.865Z,69.70
2018-12-29T03:41:03.832Z,69.23
2018-12-29T03:43:33.028Z,73.10
2018-12-29T03:46:02.034Z,73.10
2018-12-29T03:48:31.223Z,66.73
2018-12-29T03:51:00.455Z,72.60
2018-12-29T03:53:29.702Z,69.77
2018-12-29T03:55:58.669Z,73.00
2018-12-29T03:58:28.135Z,70.93
2018-12-29T04:00:57.061Z,64.77
2018-12-29T04:03:26.260Z,65.90
2018-12-29T04:05:55.256Z,70.40
2018-12-29T04:08:24.198Z,68.83
2018-12-29T04:10:53.373Z,72.83
2018-12-29T04:13:22.817Z,66.97
2018-12-29T04:15:57.890Z,69.00
2018-12-29T04:18:22.246Z,69.27
2018-12-29T04:20:51.542Z,69.77
2018-12-29T04:23:20.759Z,69.70
2018-12-29T04:25:49.681Z,65.57
2018-12-29T04:28:18.823Z,68.63
2018-12-29T04:30:48.111Z,74.83
2018-12-29T04:33:17.340Z,70.00
2018-12-29T04:35:46.258Z,72.13
2018-12-29T04:38:15.709Z,71.50
2018-12-29T04:40:44.549Z,72.97
2018-12-29T04:43:13.737Z,77.73
2018-12-29T04:45:42.905Z,74.67
2018-12-29T04:48:12.028Z,71.13
2018-12-29T04:50:40.870Z,82.40
2018-12-29T04:53:09.868Z,74.17
2018-12-29T04:55:39.224Z,73.40
2018-12-29T04:58:08.069Z,73.50
2018-12-29T05:00:37.289Z,70.90
2018-12-29T05:03:06.402Z,77.37
2018-12-29T05:05:35.261Z,78.80
2018-12-29T05:08:04.176Z,75.43
2018-12-29T05:10:33.277Z,71.50
2018-12-29T05:13:02.442Z,72.90
2018-12-29T05:15:31.611Z,67.30
2018-12-29T05:18:00.456Z,69.17
2018-12-29T05:20:29.638Z,63.40
2018-12-29T05:22:58.544Z,71.53
2018-12-29T05:25:28.164Z,70.70
2018-12-29T05:27:57.002Z,68.73
2018-12-29T05:30:26.378Z,67.03
2018-12-29T05:32:55.450Z,64.93
2018-12-29T05:35:24.382Z,64.33
2018-12-29T05:37:53.228Z,63.17
2018-12-29T05:40:22.137Z,69.23
2018-12-29T05:42:51.389Z,66.10
2018-12-29T05:45:21.183Z,67.60
2018-12-29T05:47:50.348Z,61.70
2018-12-29T05:50:19.630Z,62.13
2018-12-29T05:52:48.469Z,62.80
2018-12-29T05:55:17.329Z,68.83
2018-12-29T05:57:46.181Z,63.10
2018-12-29T06:00:15.118Z,63.20
2018-12-29T06:02:43.978Z,68.03
2018-12-29T06:05:12.894Z,65.17
2018-12-29T06:07:42.089Z,71.40
2018-12-29T06:10:11.003Z,63.20
2018-12-29T06:12:40.012Z,69.27
2018-12-29T06:15:09.012Z,69.23
2018-12-29T06:17:38.761Z,66.97
2018-12-29T06:20:08.075Z,72.77
2018-12-29T06:22:37.260Z,69.37
2018-12-29T06:25:06.300Z,73.47
2018-12-29T06:27:35.689Z,70.13
2018-12-29T06:30:04.960Z,71.77
2018-12-29T06:32:33.893Z,72.03
2018-12-29T06:35:03.167Z,69.90
2018-12-29T06:37:32.354Z,69.53
2018-12-29T06:40:01.465Z,67.80
2018-12-29T06:42:30.893Z,76.13
2018-12-29T06:45:00.174Z,70.80
2018-12-29T06:47:29.374Z,70.97
2018-12-29T06:49:58.290Z,82.10
2018-12-29T06:52:27.437Z,80.00
2018-12-29T06:54:56.725Z,72.00
2018-12-29T06:57:25.844Z,77.17
2018-12-29T06:59:55.024Z,77.80
2018-12-29T07:02:24.855Z,79.97
2018-12-29T07:04:54.293Z,81.40
2018-12-29T07:07:23.773Z,87.93
2018-12-29T07:09:52.961Z,82.93
2018-12-29T07:12:22.560Z,81.37
2018-12-29T07:14:51.769Z,84.17
2018-12-29T07:17:20.613Z,87.30
2018-12-29T07:19:49.471Z,79.20
2018-12-29T07:22:21.372Z,84.83
2018-12-29T07:24:49.889Z,80.03
2018-12-29T07:27:19.078Z,77.70
2018-12-29T07:29:48.289Z,81.23
2018-12-29T07:32:19.190Z,86.60
2018-12-29T07:34:48.217Z,88.90
2018-12-29T07:37:17.409Z,83.40
2018-12-29T07:39:46.884Z,84.00
2018-12-29T07:42:16.584Z,65.43
2018-12-29T07:44:46.803Z,62.30
2018-12-29T07:47:15.896Z,67.73
2018-12-29T07:49:45.366Z,64.27
2018-12-29T07:52:14.620Z,62.93
2018-12-29T07:54:43.753Z,58.83
2018-12-29T07:57:13.160Z,60.40
2018-12-29T07:59:42.383Z,60.90
2018-12-29T08:02:11.272Z,70.83
2018-12-29T08:04:41.069Z,70.80
2018-12-29T08:07:10.492Z,88.53
2018-12-29T08:09:40.065Z,68.83
2018-12-29T08:12:09.314Z,73.37
2018-12-29T08:14:38.199Z,73.70
2018-12-29T08:17:07.392Z,68.27
2018-12-29T08:19:36.895Z,68.07
2018-12-29T08:22:06.073Z,63.07
2018-12-29T08:24:35.490Z,64.67
2018-12-29T08:27:04.985Z,68.87
2018-12-29T08:29:34.273Z,66.90
2018-12-29T08:32:03.132Z,65.00
2018-12-29T08:34:32.157Z,76.00
2018-12-29T08:37:01.373Z,64.27
2018-12-29T08:39:30.220Z,62.47
2018-12-29T08:41:59.661Z,76.73
2018-12-29T08:44:29.166Z,77.20
2018-12-29T08:47:04.411Z,73.70
2018-12-29T08:49:29.823Z,74.63
2018-12-29T08:51:59.007Z,73.13
2018-12-29T08:54:27.861Z,73.27
2018-12-29T08:56:57.627Z,71.00
2018-12-29T08:59:26.850Z,70.97
2018-12-29T09:01:55.693Z,66.07
2018-12-29T09:04:25.076Z,72.90
2018-12-29T09:06:54.868Z,66.03
2018-12-29T09:09:24.236Z,69.13
2018-12-29T09:11:53.085Z,78.47
2018-12-29T09:14:22.633Z,75.17
2018-12-29T09:16:51.829Z,75.80
2018-12-29T09:19:27.198Z,78.07
2018-12-29T09:21:52.284Z,85.03
2018-12-29T09:24:21.389Z,81.70
2018-12-29T09:26:50.892Z,77.67
2018-12-29T09:29:20.149Z,75.20
2018-12-29T09:31:49.505Z,75.30
2018-12-29T09:34:22.478Z,73.20
2018-12-29T09:36:51.366Z,66.37
2018-12-29T09:39:20.641Z,65.47
2018-12-29T09:41:51.409Z,68.27
2018-12-29T09:44:20.401Z,65.90
2018-12-29T09:46:49.599Z,61.83
2018-12-29T09:49:19.099Z,60.53
2018-12-29T09:51:48.697Z,55.20
2018-12-29T09:54:18.141Z,55.67
2018-12-29T09:56:47.810Z,57.37
2018-12-29T09:59:17.119Z,53.20
2018-12-29T10:01:46.026Z,53.73
2018-12-29T10:04:15.401Z,50.83
2018-12-29T10:06:44.516Z,51.80
2018-12-29T10:09:13.653Z,53.37
2018-12-29T10:11:43.116Z,41.53
2018-12-29T10:14:12.469Z,54.77
2018-12-29T10:16:41.989Z,52.20
2018-12-29T10:19:11.538Z,55.13
2018-12-29T10:21:41.569Z,55.87
2018-12-29T10:24:11.169Z,45.17
2018-12-29T10:26:40.459Z,44.43
2018-12-29T10:29:10.499Z,40.53
2018-12-29T10:31:40.821Z,43.23
2018-12-29T10:34:09.994Z,41.50
2018-12-29T10:36:42.057Z,40.63
2018-12-29T10:39:12.053Z,49.47
2018-12-29T10:41:41.697Z,41.13
2018-12-29T10:44:11.008Z,40.17
2018-12-29T10:46:40.399Z,37.53
2018-12-29T10:49:09.894Z,43.20
2018-12-29T10:51:39.626Z,38.80
2018-12-29T10:54:09.135Z,37.77
2018-12-29T10:56:38.086Z,39.70
2018-12-29T10:59:07.074Z,40.27
2018-12-29T11:01:36.618Z,38.40
2018-12-29T11:04:06.157Z,37.30
2018-12-29T11:06:34.985Z,38.00
2018-12-29T11:09:05.357Z,36.27
2018-12-29T11:11:34.948Z,41.03
2018-12-29T11:14:04.309Z,39.30
2018-12-29T11:16:33.990Z,39.63
2018-12-29T11:19:03.569Z,42.80
2018-12-29T11:21:32.972Z,39.43
2018-12-29T11:24:02.786Z,46.43
2018-12-29T11:26:31.898Z,44.70
2018-12-29T11:29:01.229Z,44.20
2018-12-29T11:31:30.575Z,43.97
2018-12-29T11:34:00.113Z,44.83
2018-12-29T11:36:29.676Z,39.23
2018-12-29T11:38:58.975Z,42.77
2018-12-29T11:41:28.186Z,41.97
2018-12-29T11:43:57.109Z,41.27
2018-12-29T11:46:26.597Z,43.87
2018-12-29T11:48:55.841Z,35.20
2018-12-29T11:51:25.376Z,37.73
2018-12-29T11:53:54.769Z,33.80
2018-12-29T11:56:23.781Z,30.17
2018-12-29T11:58:53.644Z,33.07
2018-12-29T12:01:23.005Z,25.07
2018-12-29T12:03:51.950Z,52.77
2018-12-29T12:06:21.530Z,38.13
2018-12-29T12:08:50.648Z,36.40
2018-12-29T12:11:19.536Z,57.70
2018-12-29T12:13:48.701Z,35.07
2018-12-29T12:16:17.548Z,34.93
2018-12-29T12:18:46.716Z,36.90
2018-12-29T12:21:15.881Z,30.07
2018-12-29T12:23:44.742Z,22.10
2018-12-29T12:26:14.119Z,23.50
2018-12-29T12:28:43.595Z,20.30
2018-12-29T12:31:12.801Z,20.67
2018-12-29T12:33:41.649Z,19.37
2018-12-29T12:36:11.076Z,20.80
2018-12-29T12:38:40.001Z,18.97
2018-12-29T12:41:08.858Z,19.90
2018-12-29T12:43:39.112Z,20.83
2018-12-29T12:46:08.423Z,21.07
2018-12-29T12:48:37.908Z,19.27
2018-12-29T12:51:07.467Z,20.00
2018-12-29T12:53:37.241Z,18.33
2018-12-29T12:56:06.831Z,20.70
2018-12-29T12:58:36.043Z,19.10
2018-12-29T13:01:05.965Z,19.17
2018-12-29T13:03:35.556Z,17.80
2018-12-29T13:06:04.494Z,17.03
2018-12-29T13:08:33.584Z,17.80
2018-12-29T13:11:02.864Z,19.43
2018-12-29T13:13:32.861Z,18.43
2018-12-29T13:16:01.874Z,19.30
2018-12-29T13:18:30.953Z,18.83
2018-12-29T13:21:00.513Z,16.83
2018-12-29T13:23:29.736Z,19.77
2018-12-29T13:25:58.891Z,19.20
2018-12-29T13:28:28.158Z,23.40
2018-12-29T13:30:57.477Z,19.70
2018-12-29T13:33:26.886Z,20.13
2018-12-29T13:35:55.745Z,21.23
2018-12-29T13:38:24.930Z,21.63
2018-12-29T13:40:53.797Z,15.93
2018-12-29T13:43:22.738Z,15.33
2018-12-29T13:45:51.911Z,15.57
2018-12-29T13:48:21.608Z,15.97
2018-12-29T13:50:50.898Z,13.03
2018-12-29T13:53:19.764Z,15.93
2018-12-29T13:55:48.604Z,14.50
2018-12-29T13:58:17.453Z,14.93
2018-12-29T14:00:46.316Z,15.73
2018-12-29T14:03:15.546Z,14.77
2018-12-29T14:05:45.118Z,11.67
2018-12-29T14:08:14.156Z,13.60
2018-12-29T14:10:43.071Z,10.93
2018-12-29T14:13:11.928Z,12.10
2018-12-29T14:15:41.068Z,13.30
2018-12-29T14:18:10.285Z,14.10
2018-12-29T14:20:39.128Z,13.13
2018-12-29T14:23:08.360Z,13.63
2018-12-29T14:25:37.819Z,13.03
2018-12-29T14:28:06.654Z,12.07
2018-12-29T14:30:35.589Z,10.77
2018-12-29T14:33:04.431Z,13.43
2018-12-29T14:35:33.360Z,13.13
2018-12-29T14:38:03.108Z,12.23
2018-12-29T14:40:32.281Z,11.53
2018-12-29T14:43:01.765Z,13.27
2018-12-29T14:45:30.874Z,13.20
2018-12-29T14:48:00.065Z,12.43
2018-12-29T14:50:28.922Z,13.80
2018-12-29T14:52:58.034Z,12.30
2018-12-29T14:55:27.145Z,14.57
2018-12-29T14:57:56.069Z,12.90
2018-12-29T15:00:25.329Z,13.20
2018-12-29T15:02:54.265Z,16.73
2018-12-29T15:05:23.971Z,16.50
2018-12-29T15:07:53.120Z,14.13
2018-12-29T15:10:22.404Z,19.70
2018-12-29T15:12:51.639Z,16.10
2018-12-29T15:15:20.838Z,21.77
2018-12-29T15:17:50.016Z,22.43
2018-12-29T15:20:19.349Z,84.97
2018-12-29T15:22:48.652Z,18.90
2018-12-29T15:25:17.832Z,67.53
2018-12-29T15:27:47.557Z,35.10
2018-12-29T15:30:17.156Z,16.57
2018-12-29T15:32:46.442Z,23.90
2018-12-29T15:35:15.367Z,52.60
2018-12-29T15:37:44.478Z,27.97
2018-12-29T15:40:14.262Z,40.07
2018-12-29T15:42:45.091Z,25.57
2018-12-29T15:45:14.211Z,24.17
2018-12-29T15:47:43.489Z,27.67
2018-12-29T15:50:12.803Z,22.10
2018-12-29T15:52:42.017Z,21.57
2018-12-29T15:55:11.165Z,28.30
2018-12-29T15:57:40.622Z,40.90
2018-12-29T16:00:09.952Z,27.57
2018-12-29T16:02:39.168Z,21.53
2018-12-29T16:05:08.277Z,26.07
2018-12-29T16:07:38.008Z,18.20
2018-12-29T16:10:07.523Z,20.43
2018-12-29T16:12:36.781Z,20.10
2018-12-29T16:15:05.937Z,18.13
2018-12-29T16:17:35.135Z,24.10
2018-12-29T16:20:04.224Z,31.10
2018-12-29T16:22:33.414Z,27.63
2018-12-29T16:25:02.684Z,21.13
2018-12-29T16:27:32.304Z,42.40
2018-12-29T16:30:01.504Z,31.87
2018-12-29T16:32:31.357Z,38.53
2018-12-29T16:35:00.522Z,21.53
2018-12-29T16:37:30.032Z,20.87
2018-12-29T16:39:59.541Z,20.13
2018-12-29T16:42:28.939Z,17.97
2018-12-29T16:44:58.425Z,17.10
2018-12-29T16:47:27.269Z,56.70
2018-12-29T16:49:56.464Z,25.87
2018-12-29T16:52:25.840Z,26.07
2018-12-29T16:54:55.351Z,21.43
2018-12-29T16:57:24.596Z,19.97
2018-12-29T16:59:53.744Z,19.67
2018-12-29T17:02:23.665Z,21.30
2018-12-29T17:04:52.530Z,20.27
2018-12-29T17:07:21.734Z,22.33
2018-12-29T17:09:51.195Z,17.67
2018-12-29T17:12:20.664Z,17.90
2018-12-29T17:14:49.857Z,20.03
2018-12-29T17:17:19.043Z,24.10
2018-12-29T17:19:47.905Z,20.53
2018-12-29T17:22:17.045Z,24.77
2018-12-29T17:24:46.650Z,23.63
2018-12-29T17:27:15.836Z,25.07
2018-12-29T17:29:45.258Z,20.73
2018-12-29T17:32:14.099Z,18.27
2018-12-29T17:34:43.552Z,19.77
2018-12-29T17:37:12.648Z,19.80
2018-12-29T17:39:41.718Z,33.17
2018-12-29T17:42:10.946Z,29.10
2018-12-29T17:44:39.974Z,21.70
2018-12-29T17:47:09.305Z,19.87
2018-12-29T17:49:38.441Z,19.63
2018-12-29T17:52:07.865Z,20.53
2018-12-29T17:54:37.145Z,23.03
2018-12-29T17:57:06.613Z,20.87
2018-12-29T17:59:35.457Z,25.70
2018-12-29T18:02:04.641Z,21.90
2018-12-29T18:04:33.768Z,21.00
2018-12-29T18:07:03.053Z,24.17
2018-12-29T18:09:32.234Z,25.33
2018-12-29T18:12:01.475Z,23.00
2018-12-29T18:14:30.327Z,23.10
2018-12-29T18:16:59.849Z,24.80
2018-12-29T18:19:30.795Z,40.60
2018-12-29T18:22:00.099Z,24.53
2018-12-29T18:24:29.808Z,26.37
2018-12-29T18:26:58.922Z,23.60
2018-12-29T18:29:28.132Z,27.70
2018-12-29T18:31:57.481Z,23.07
2018-12-29T18:34:26.713Z,22.23
2018-12-29T18:36:56.277Z,21.23
2018-12-29T18:39:25.872Z,17.03
2018-12-29T18:41:55.413Z,14.20
2018-12-29T18:44:25.320Z,16.30
2018-12-29T18:46:54.517Z,13.23
2018-12-29T18:49:23.369Z,17.53
2018-12-29T18:51:52.813Z,15.30
2018-12-29T18:54:22.009Z,14.87
2018-12-29T18:56:51.735Z,11.10
2018-12-29T18:59:21.040Z,15.63
2018-12-29T19:01:57.357Z,13.53
2018-12-29T19:04:20.987Z,13.40
2018-12-29T19:06:49.832Z,11.70
2018-12-29T19:09:18.943Z,11.10
2018-12-29T19:11:48.452Z,11.57
2018-12-29T19:14:18.016Z,11.80
2018-12-29T19:16:47.268Z,11.23
2018-12-29T19:19:16.119Z,9.60
2018-12-29T19:21:45.451Z,8.87
2018-12-29T19:24:14.943Z,8.80
2018-12-29T19:26:44.264Z,9.77
2018-12-29T19:29:13.174Z,9.37
2018-12-29T19:31:44.818Z,9.83
2018-12-29T19:34:13.265Z,10.97
2018-12-29T19:36:42.362Z,8.30
2018-12-29T19:39:11.748Z,8.30
2018-12-29T19:41:46.549Z,8.53
2018-12-29T19:44:11.213Z,8.70
2018-12-29T19:46:40.820Z,10.43
2018-12-29T19:49:09.665Z,8.57
2018-12-29T19:51:38.522Z,9.80
2018-12-29T19:54:07.430Z,8.80
2018-12-29T19:56:36.796Z,8.87
2018-12-29T19:59:05.991Z,9.93
2018-12-29T20:01:35.207Z,10.27
2018-12-29T20:04:04.596Z,9.87
2018-12-29T20:06:33.703Z,8.47
2018-12-29T20:09:03.195Z,7.77
2018-12-29T20:11:32.397Z,7.77
2018-12-29T20:14:01.495Z,8.60
2018-12-29T20:16:30.993Z,8.97
2018-12-29T20:18:59.903Z,7.97
2018-12-29T20:21:29.445Z,10.77
2018-12-29T20:23:58.652Z,10.17
2018-12-29T20:26:28.427Z,10.00
2018-12-29T20:28:57.516Z,14.97
2018-12-29T20:31:27.323Z,11.17
2018-12-29T20:33:56.566Z,6.70
2018-12-29T20:36:25.717Z,6.80
2018-12-29T20:38:54.890Z,8.03
2018-12-29T20:41:24.426Z,7.53
2018-12-29T20:43:53.517Z,7.17
2018-12-29T20:46:23.023Z,5.60
2018-12-29T20:48:52.239Z,5.80
2018-12-29T20:51:21.096Z,5.90
2018-12-29T20:53:50.647Z,7.53
2018-12-29T20:56:19.554Z,6.20
2018-12-29T20:58:49.011Z,6.10
2018-12-29T21:01:17.924Z,6.20
2018-12-29T21:03:46.791Z,9.47
2018-12-29T21:06:15.630Z,9.30
2018-12-29T21:08:45.092Z,6.73
2018-12-29T21:11:14.749Z,7.53
2018-12-29T21:13:44.022Z,8.13
2018-12-29T21:16:12.907Z,7.63
2018-12-29T21:18:41.815Z,9.20
2018-12-29T21:21:11.015Z,8.63
2018-12-29T21:23:39.907Z,8.87
2018-12-29T21:26:09.430Z,9.43
2018-12-29T21:28:38.282Z,11.67
2018-12-29T21:31:07.687Z,11.03
2018-12-29T21:33:36.897Z,12.47
2018-12-29T21:36:06.065Z,13.03
2018-12-29T21:38:35.031Z,12.17
2018-12-29T21:41:04.273Z,12.80
2018-12-29T21:43:33.099Z,11.83
2018-12-29T21:46:02.677Z,14.03
2018-12-29T21:48:32.471Z,12.37
2018-12-29T21:51:01.940Z,15.53
2018-12-29T21:53:31.096Z,14.50
2018-12-29T21:56:00.476Z,13.67
2018-12-29T21:58:29.996Z,14.13
2018-12-29T22:00:59.708Z,14.73
2018-12-29T22:03:28.568Z,15.50
2018-12-29T22:05:57.751Z,14.20
2018-12-29T22:08:26.872Z,17.23
2018-12-29T22:10:56.111Z,12.30
2018-12-29T22:13:26.123Z,14.67
2018-12-29T22:15:55.617Z,15.70
2018-12-29T22:18:25.015Z,16.73
2018-12-29T22:20:54.962Z,15.17
2018-12-29T22:23:24.140Z,15.47
2018-12-29T22:25:53.607Z,15.77
2018-12-29T22:28:22.952Z,17.57
2018-12-29T22:30:52.052Z,17.10
2018-12-29T22:33:21.143Z,20.17
2018-12-29T22:35:50.259Z,15.97
2018-12-29T22:38:19.896Z,14.93
2018-12-29T22:40:49.453Z,15.10
2018-12-29T22:43:18.625Z,14.20
2018-12-29T22:45:47.854Z,16.00
2018-12-29T22:48:17.375Z,14.80
2018-12-29T22:50:46.296Z,16.60
2018-12-29T22:53:15.444Z,15.40
2018-12-29T22:55:45.051Z,17.40
2018-12-29T22:58:14.297Z,14.87
2018-12-29T23:00:45.120Z,15.73
2018-12-29T23:03:16.134Z,15.67
2018-12-29T23:05:45.314Z,15.43
2018-12-29T23:08:14.724Z,15.30
2018-12-29T23:10:43.642Z,17.40
2018-12-29T23:13:13.125Z,15.33
2018-12-29T23:15:42.032Z,15.43
2018-12-29T23:18:11.856Z,19.43
2018-12-29T23:20:40.875Z,13.07
2018-12-29T23:23:12.286Z,15.57
2018-12-29T23:25:41.126Z,18.03
2018-12-29T23:28:10.054Z,15.43
2018-12-29T23:30:39.264Z,14.23
2018-12-29T23:33:08.528Z,15.53
2018-12-29T23:35:37.455Z,15.80
2018-12-29T23:38:07.055Z,17.60
2018-12-29T23:40:36.385Z,15.10
2018-12-29T23:43:05.877Z,15.87
2018-12-29T23:45:35.057Z,17.53
2018-12-29T23:48:03.977Z,16.30
2018-12-29T23:50:33.178Z,16.33
2018-12-29T23:53:02.874Z,16.07
2018-12-29T23:55:32.111Z,15.20
2018-12-29T23:58:01.093Z,16.63
